sensor_id;sensor_type;location;lat;lon;timestamp;P1;durP1;ratioP1;P2;durP2;ratioP2
61385;SDS011;47256;18.904;-99.054;2022-08-21T00:01:36;9.88;;;2.78;;
61385;SDS011;47256;18.904;-99.054;2022-08-21T00:04:07;14.02;;;2.45;;
61385;SDS011;47256;18.904;-99.054;2022-08-21T00:06:35;7.32;;;2.80;;
61385;SDS011;47256;18.904;-99.054;2022-08-21T00:09:04;12.98;;;2.75;;
61385;SDS011;47256;18.904;-99.054;2022-08-21T00:11:33;13.73;;;4.03;;
61385;SDS011;47256;18.904;-99.054;2022-08-21T00:14:01;6.18;;;2.85;;
61385;SDS011;47256;18.904;-99.054;2022-08-21T00:16:33;6.43;;;2.40;;
61385;SDS011;47256;18.904;-99.054;2022-08-21T00:19:01;4.80;;;2.28;;
61385;SDS011;47256;18.904;-99.054;2022-08-21T00:21:29;9.43;;;2.35;;
61385;SDS011;47256;18.904;-99.054;2022-08-21T00:23:56;6.60;;;2.55;;
61385;SDS011;47256;18.904;-99.054;2022-08-21T00:26:23;6.93;;;3.30;;
61385;SDS011;47256;18.904;-99.054;2022-08-21T00:28:52;7.93;;;3.53;;
61385;SDS011;47256;18.904;-99.054;2022-08-21T00:31:22;12.77;;;3.45;;
61385;SDS011;47256;18.904;-99.054;2022-08-21T00:33:49;13.55;;;3.35;;
61385;SDS011;47256;18.904;-99.054;2022-08-21T00:36:16;6.20;;;3.00;;
61385;SDS011;47256;18.904;-99.054;2022-08-21T00:38:44;8.68;;;3.20;;
61385;SDS011;47256;18.904;-99.054;2022-08-21T00:41:12;4.65;;;2.30;;
61385;SDS011;47256;18.904;-99.054;2022-08-21T00:43:39;6.43;;;2.47;;
61385;SDS011;47256;18.904;-99.054;2022-08-21T00:46:08;7.82;;;2.33;;
61385;SDS011;47256;18.904;-99.054;2022-08-21T00:48:35;9.00;;;2.38;;
61385;SDS011;47256;18.904;-99.054;2022-08-21T00:51:06;8.07;;;2.90;;
61385;SDS011;47256;18.904;-99.054;2022-08-21T00:53:35;11.10;;;2.92;;
61385;SDS011;47256;18.904;-99.054;2022-08-21T00:56:05;13.98;;;4.13;;
61385;SDS011;47256;18.904;-99.054;2022-08-21T00:58:34;17.00;;;4.05;;
61385;SDS011;47256;18.904;-99.054;2022-08-21T01:01:03;15.27;;;3.70;;
61385;SDS011;47256;18.904;-99.054;2022-08-21T01:03:33;9.15;;;3.08;;
61385;SDS011;47256;18.904;-99.054;2022-08-21T01:06:05;17.42;;;4.07;;
61385;SDS011;47256;18.904;-99.054;2022-08-21T01:08:34;11.48;;;3.58;;
61385;SDS011;47256;18.904;-99.054;2022-08-21T01:11:02;17.52;;;3.60;;
61385;SDS011;47256;18.904;-99.054;2022-08-21T01:13:32;12.20;;;3.35;;
61385;SDS011;47256;18.904;-99.054;2022-08-21T01:16:04;16.35;;;3.60;;
61385;SDS011;47256;18.904;-99.054;2022-08-21T01:18:35;8.40;;;2.90;;
61385;SDS011;47256;18.904;-99.054;2022-08-21T01:23:44;3.72;;;2.38;;
61385;SDS011;47256;18.904;-99.054;2022-08-21T01:26:14;8.60;;;2.58;;
61385;SDS011;47256;18.904;-99.054;2022-08-21T01:29:07;10.20;;;3.13;;
61385;SDS011;47256;18.904;-99.054;2022-08-21T01:31:42;13.65;;;2.83;;
61385;SDS011;47256;18.904;-99.054;2022-08-21T01:34:12;14.45;;;3.00;;
61385;SDS011;47256;18.904;-99.054;2022-08-21T01:36:42;11.38;;;2.85;;
61385;SDS011;47256;18.904;-99.054;2022-08-21T01:39:11;16.95;;;3.70;;
61385;SDS011;47256;18.904;-99.054;2022-08-21T01:41:38;9.10;;;2.75;;
61385;SDS011;47256;18.904;-99.054;2022-08-21T01:44:05;9.43;;;2.65;;
61385;SDS011;47256;18.904;-99.054;2022-08-21T01:46:34;6.70;;;3.58;;
61385;SDS011;47256;18.904;-99.054;2022-08-21T01:49:02;6.22;;;3.20;;
61385;SDS011;47256;18.904;-99.054;2022-08-21T01:51:30;9.05;;;2.60;;
61385;SDS011;47256;18.904;-99.054;2022-08-21T01:53:58;10.45;;;3.33;;
61385;SDS011;47256;18.904;-99.054;2022-08-21T01:56:26;9.65;;;3.30;;
61385;SDS011;47256;18.904;-99.054;2022-08-21T01:58:53;14.43;;;3.75;;
61385;SDS011;47256;18.904;-99.054;2022-08-21T02:01:21;8.93;;;3.65;;
61385;SDS011;47256;18.904;-99.054;2022-08-21T02:03:48;9.18;;;3.78;;
61385;SDS011;47256;18.904;-99.054;2022-08-21T02:06:19;14.60;;;4.00;;
61385;SDS011;47256;18.904;-99.054;2022-08-21T02:08:46;4.95;;;3.50;;
61385;SDS011;47256;18.904;-99.054;2022-08-21T02:11:14;10.60;;;4.38;;
61385;SDS011;47256;18.904;-99.054;2022-08-21T02:13:41;13.00;;;4.50;;
61385;SDS011;47256;18.904;-99.054;2022-08-21T02:16:09;17.25;;;4.90;;
61385;SDS011;47256;18.904;-99.054;2022-08-21T02:18:37;9.32;;;4.18;;
61385;SDS011;47256;18.904;-99.054;2022-08-21T02:21:04;15.52;;;4.65;;
61385;SDS011;47256;18.904;-99.054;2022-08-21T02:23:32;15.00;;;4.82;;
61385;SDS011;47256;18.904;-99.054;2022-08-21T02:26:03;14.93;;;4.65;;
61385;SDS011;47256;18.904;-99.054;2022-08-21T02:28:34;6.30;;;4.20;;
61385;SDS011;47256;18.904;-99.054;2022-08-21T02:31:02;9.10;;;4.15;;
61385;SDS011;47256;18.904;-99.054;2022-08-21T02:33:31;12.10;;;3.92;;
61385;SDS011;47256;18.904;-99.054;2022-08-21T02:35:59;9.10;;;4.28;;
61385;SDS011;47256;18.904;-99.054;2022-08-21T02:38:30;16.02;;;4.63;;
61385;SDS011;47256;18.904;-99.054;2022-08-21T02:41:00;6.22;;;4.60;;
61385;SDS011;47256;18.904;-99.054;2022-08-21T02:43:28;11.98;;;5.25;;
61385;SDS011;47256;18.904;-99.054;2022-08-21T02:45:56;12.98;;;4.53;;
61385;SDS011;47256;18.904;-99.054;2022-08-21T02:48:25;13.23;;;5.28;;
61385;SDS011;47256;18.904;-99.054;2022-08-21T02:50:57;18.42;;;6.85;;
61385;SDS011;47256;18.904;-99.054;2022-08-21T02:53:33;11.13;;;5.05;;
61385;SDS011;47256;18.904;-99.054;2022-08-21T02:56:03;18.05;;;5.43;;
61385;SDS011;47256;18.904;-99.054;2022-08-21T02:58:37;13.85;;;5.28;;
61385;SDS011;47256;18.904;-99.054;2022-08-21T03:01:11;11.00;;;4.72;;
61385;SDS011;47256;18.904;-99.054;2022-08-21T03:03:41;11.38;;;5.40;;
61385;SDS011;47256;18.904;-99.054;2022-08-21T03:06:13;11.50;;;5.28;;
61385;SDS011;47256;18.904;-99.054;2022-08-21T03:08:46;13.57;;;5.38;;
61385;SDS011;47256;18.904;-99.054;2022-08-21T03:11:17;15.98;;;5.90;;
61385;SDS011;47256;18.904;-99.054;2022-08-21T03:13:46;13.40;;;4.65;;
61385;SDS011;47256;18.904;-99.054;2022-08-21T03:16:14;9.68;;;4.05;;
61385;SDS011;47256;18.904;-99.054;2022-08-21T03:18:44;9.93;;;3.70;;
61385;SDS011;47256;18.904;-99.054;2022-08-21T03:21:12;12.13;;;4.30;;
61385;SDS011;47256;18.904;-99.054;2022-08-21T03:23:40;9.35;;;3.50;;
61385;SDS011;47256;18.904;-99.054;2022-08-21T03:26:07;6.05;;;3.10;;
61385;SDS011;47256;18.904;-99.054;2022-08-21T03:28:36;9.93;;;3.50;;
61385;SDS011;47256;18.904;-99.054;2022-08-21T03:31:05;6.22;;;3.13;;
61385;SDS011;47256;18.904;-99.054;2022-08-21T03:33:34;13.40;;;3.20;;
61385;SDS011;47256;18.904;-99.054;2022-08-21T03:36:03;9.52;;;3.15;;
61385;SDS011;47256;18.904;-99.054;2022-08-21T03:38:35;9.45;;;3.10;;
61385;SDS011;47256;18.904;-99.054;2022-08-21T03:41:05;13.07;;;3.05;;
61385;SDS011;47256;18.904;-99.054;2022-08-21T03:43:37;8.55;;;3.25;;
61385;SDS011;47256;18.904;-99.054;2022-08-21T03:46:05;8.70;;;3.10;;
61385;SDS011;47256;18.904;-99.054;2022-08-21T03:48:34;14.35;;;3.17;;
61385;SDS011;47256;18.904;-99.054;2022-08-21T03:51:04;7.40;;;4.10;;
61385;SDS011;47256;18.904;-99.054;2022-08-21T03:53:33;8.25;;;3.58;;
61385;SDS011;47256;18.904;-99.054;2022-08-21T03:56:01;6.30;;;3.60;;
61385;SDS011;47256;18.904;-99.054;2022-08-21T03:58:33;8.85;;;3.53;;
61385;SDS011;47256;18.904;-99.054;2022-08-21T04:01:02;10.63;;;3.33;;
61385;SDS011;47256;18.904;-99.054;2022-08-21T04:03:34;11.55;;;3.05;;
61385;SDS011;47256;18.904;-99.054;2022-08-21T04:06:03;9.60;;;3.53;;
61385;SDS011;47256;18.904;-99.054;2022-08-21T04:08:33;11.77;;;4.28;;
61385;SDS011;47256;18.904;-99.054;2022-08-21T04:11:02;14.48;;;3.65;;
61385;SDS011;47256;18.904;-99.054;2022-08-21T04:13:30;9.40;;;2.70;;
61385;SDS011;47256;18.904;-99.054;2022-08-21T04:15:57;5.55;;;2.90;;
61385;SDS011;47256;18.904;-99.054;2022-08-21T04:18:25;9.68;;;3.00;;
61385;SDS011;47256;18.904;-99.054;2022-08-21T04:20:52;5.13;;;3.10;;
61385;SDS011;47256;18.904;-99.054;2022-08-21T04:23:23;9.75;;;3.70;;
61385;SDS011;47256;18.904;-99.054;2022-08-21T04:25:52;10.23;;;3.15;;
61385;SDS011;47256;18.904;-99.054;2022-08-21T04:28:23;6.05;;;3.47;;
61385;SDS011;47256;18.904;-99.054;2022-08-21T04:30:53;6.22;;;3.33;;
61385;SDS011;47256;18.904;-99.054;2022-08-21T04:33:21;18.75;;;3.60;;
61385;SDS011;47256;18.904;-99.054;2022-08-21T04:35:50;8.32;;;3.40;;
61385;SDS011;47256;18.904;-99.054;2022-08-21T04:38:18;8.70;;;3.13;;
61385;SDS011;47256;18.904;-99.054;2022-08-21T04:40:47;6.72;;;3.22;;
61385;SDS011;47256;18.904;-99.054;2022-08-21T04:43:15;7.57;;;3.10;;
61385;SDS011;47256;18.904;-99.054;2022-08-21T04:45:45;5.75;;;3.45;;
61385;SDS011;47256;18.904;-99.054;2022-08-21T04:48:16;13.55;;;3.30;;
61385;SDS011;47256;18.904;-99.054;2022-08-21T04:53:31;12.52;;;3.83;;
61385;SDS011;47256;18.904;-99.054;2022-08-21T04:56:25;10.23;;;3.22;;
61385;SDS011;47256;18.904;-99.054;2022-08-21T04:58:58;8.13;;;3.28;;
61385;SDS011;47256;18.904;-99.054;2022-08-21T05:01:32;8.63;;;3.28;;
61385;SDS011;47256;18.904;-99.054;2022-08-21T05:04:02;4.90;;;3.22;;
61385;SDS011;47256;18.904;-99.054;2022-08-21T05:06:37;14.20;;;3.67;;
61385;SDS011;47256;18.904;-99.054;2022-08-21T05:09:06;11.10;;;3.30;;
61385;SDS011;47256;18.904;-99.054;2022-08-21T05:11:36;8.35;;;3.38;;
61385;SDS011;47256;18.904;-99.054;2022-08-21T05:14:04;16.48;;;4.28;;
61385;SDS011;47256;18.904;-99.054;2022-08-21T05:16:31;12.10;;;3.83;;
61385;SDS011;47256;18.904;-99.054;2022-08-21T05:18:59;12.23;;;3.80;;
61385;SDS011;47256;18.904;-99.054;2022-08-21T05:21:26;14.02;;;3.95;;
61385;SDS011;47256;18.904;-99.054;2022-08-21T05:23:54;9.52;;;3.65;;
61385;SDS011;47256;18.904;-99.054;2022-08-21T05:26:21;16.05;;;3.67;;
61385;SDS011;47256;18.904;-99.054;2022-08-21T05:28:48;7.97;;;2.88;;
61385;SDS011;47256;18.904;-99.054;2022-08-21T05:31:15;13.00;;;4.15;;
61385;SDS011;47256;18.904;-99.054;2022-08-21T05:33:44;10.40;;;3.45;;
61385;SDS011;47256;18.904;-99.054;2022-08-21T05:36:12;8.02;;;3.60;;
61385;SDS011;47256;18.904;-99.054;2022-08-21T05:38:40;11.07;;;4.10;;
61385;SDS011;47256;18.904;-99.054;2022-08-21T05:41:08;8.23;;;3.90;;
61385;SDS011;47256;18.904;-99.054;2022-08-21T05:43:35;11.43;;;4.80;;
61385;SDS011;47256;18.904;-99.054;2022-08-21T05:46:03;9.50;;;4.47;;
61385;SDS011;47256;18.904;-99.054;2022-08-21T05:48:32;7.68;;;3.55;;
61385;SDS011;47256;18.904;-99.054;2022-08-21T05:51:10;10.48;;;3.95;;
61385;SDS011;47256;18.904;-99.054;2022-08-21T05:53:41;7.07;;;3.50;;
61385;SDS011;47256;18.904;-99.054;2022-08-21T05:56:09;10.80;;;3.92;;
61385;SDS011;47256;18.904;-99.054;2022-08-21T05:58:41;9.25;;;3.53;;
61385;SDS011;47256;18.904;-99.054;2022-08-21T06:01:09;8.77;;;2.97;;
61385;SDS011;47256;18.904;-99.054;2022-08-21T06:03:38;12.82;;;4.47;;
61385;SDS011;47256;18.904;-99.054;2022-08-21T06:06:06;11.43;;;4.05;;
61385;SDS011;47256;18.904;-99.054;2022-08-21T06:08:34;10.05;;;3.95;;
61385;SDS011;47256;18.904;-99.054;2022-08-21T06:11:01;17.23;;;4.78;;
61385;SDS011;47256;18.904;-99.054;2022-08-21T06:13:30;7.32;;;3.40;;
61385;SDS011;47256;18.904;-99.054;2022-08-21T06:16:02;7.78;;;3.67;;
61385;SDS011;47256;18.904;-99.054;2022-08-21T06:18:36;10.25;;;3.70;;
61385;SDS011;47256;18.904;-99.054;2022-08-21T06:21:04;8.85;;;3.63;;
61385;SDS011;47256;18.904;-99.054;2022-08-21T06:23:35;8.80;;;3.53;;
61385;SDS011;47256;18.904;-99.054;2022-08-21T06:26:03;14.20;;;4.10;;
61385;SDS011;47256;18.904;-99.054;2022-08-21T06:28:32;8.32;;;3.60;;
61385;SDS011;47256;18.904;-99.054;2022-08-21T06:31:12;9.80;;;3.42;;
61385;SDS011;47256;18.904;-99.054;2022-08-21T06:33:43;9.80;;;4.68;;
61385;SDS011;47256;18.904;-99.054;2022-08-21T06:36:11;8.98;;;4.93;;
61385;SDS011;47256;18.904;-99.054;2022-08-21T06:38:40;9.90;;;4.82;;
61385;SDS011;47256;18.904;-99.054;2022-08-21T06:41:07;16.05;;;4.57;;
61385;SDS011;47256;18.904;-99.054;2022-08-21T06:43:35;15.98;;;4.57;;
61385;SDS011;47256;18.904;-99.054;2022-08-21T06:46:03;8.85;;;4.38;;
61385;SDS011;47256;18.904;-99.054;2022-08-21T06:48:31;13.30;;;4.30;;
61385;SDS011;47256;18.904;-99.054;2022-08-21T06:51:00;9.52;;;3.92;;
61385;SDS011;47256;18.904;-99.054;2022-08-21T06:53:30;11.15;;;5.15;;
61385;SDS011;47256;18.904;-99.054;2022-08-21T06:55:58;9.23;;;4.38;;
61385;SDS011;47256;18.904;-99.054;2022-08-21T06:58:26;7.80;;;4.60;;
61385;SDS011;47256;18.904;-99.054;2022-08-21T07:00:53;7.53;;;4.82;;
61385;SDS011;47256;18.904;-99.054;2022-08-21T07:03:23;10.05;;;4.85;;
61385;SDS011;47256;18.904;-99.054;2022-08-21T07:05:53;11.35;;;5.70;;
61385;SDS011;47256;18.904;-99.054;2022-08-21T07:08:20;11.30;;;5.35;;
61385;SDS011;47256;18.904;-99.054;2022-08-21T07:10:48;11.38;;;4.93;;
61385;SDS011;47256;18.904;-99.054;2022-08-21T07:13:16;11.00;;;5.53;;
61385;SDS011;47256;18.904;-99.054;2022-08-21T07:15:45;14.30;;;5.45;;
61385;SDS011;47256;18.904;-99.054;2022-08-21T07:18:12;10.32;;;3.92;;
61385;SDS011;47256;18.904;-99.054;2022-08-21T07:20:41;11.75;;;3.90;;
61385;SDS011;47256;18.904;-99.054;2022-08-21T07:23:12;6.53;;;3.72;;
61385;SDS011;47256;18.904;-99.054;2022-08-21T07:25:57;11.50;;;4.30;;
61385;SDS011;47256;18.904;-99.054;2022-08-21T07:28:27;8.27;;;3.85;;
61385;SDS011;47256;18.904;-99.054;2022-08-21T07:30:56;9.82;;;3.42;;
61385;SDS011;47256;18.904;-99.054;2022-08-21T07:33:28;7.97;;;3.22;;
61385;SDS011;47256;18.904;-99.054;2022-08-21T07:35:57;10.25;;;3.33;;
61385;SDS011;47256;18.904;-99.054;2022-08-21T07:38:25;6.95;;;3.00;;
61385;SDS011;47256;18.904;-99.054;2022-08-21T07:40:55;7.85;;;3.40;;
61385;SDS011;47256;18.904;-99.054;2022-08-21T07:43:28;9.32;;;3.70;;
61385;SDS011;47256;18.904;-99.054;2022-08-21T07:45:56;4.43;;;2.97;;
61385;SDS011;47256;18.904;-99.054;2022-08-21T07:48:23;8.73;;;4.07;;
61385;SDS011;47256;18.904;-99.054;2022-08-21T07:50:50;6.75;;;3.53;;
61385;SDS011;47256;18.904;-99.054;2022-08-21T07:53:21;6.28;;;3.45;;
61385;SDS011;47256;18.904;-99.054;2022-08-21T07:55:48;9.10;;;3.58;;
61385;SDS011;47256;18.904;-99.054;2022-08-21T07:58:15;6.47;;;3.58;;
61385;SDS011;47256;18.904;-99.054;2022-08-21T08:00:43;12.20;;;3.83;;
61385;SDS011;47256;18.904;-99.054;2022-08-21T08:03:10;10.07;;;3.55;;
61385;SDS011;47256;18.904;-99.054;2022-08-21T08:05:38;12.75;;;3.78;;
61385;SDS011;47256;18.904;-99.054;2022-08-21T08:08:05;11.18;;;3.60;;
61385;SDS011;47256;18.904;-99.054;2022-08-21T08:10:33;4.30;;;3.20;;
61385;SDS011;47256;18.904;-99.054;2022-08-21T08:13:00;7.30;;;3.50;;
61385;SDS011;47256;18.904;-99.054;2022-08-21T08:15:29;6.68;;;4.28;;
61385;SDS011;47256;18.904;-99.054;2022-08-21T08:17:56;13.70;;;3.53;;
61385;SDS011;47256;18.904;-99.054;2022-08-21T08:20:24;5.18;;;3.47;;
61385;SDS011;47256;18.904;-99.054;2022-08-21T08:22:53;9.82;;;4.03;;
61385;SDS011;47256;18.904;-99.054;2022-08-21T08:25:22;10.85;;;3.25;;
61385;SDS011;47256;18.904;-99.054;2022-08-21T08:27:50;8.45;;;3.28;;
61385;SDS011;47256;18.904;-99.054;2022-08-21T08:30:18;7.95;;;3.47;;
61385;SDS011;47256;18.904;-99.054;2022-08-21T08:32:47;11.35;;;3.65;;
61385;SDS011;47256;18.904;-99.054;2022-08-21T08:35:15;10.15;;;4.22;;
61385;SDS011;47256;18.904;-99.054;2022-08-21T08:37:43;8.38;;;4.13;;
61385;SDS011;47256;18.904;-99.054;2022-08-21T08:40:12;7.13;;;3.90;;
61385;SDS011;47256;18.904;-99.054;2022-08-21T08:43:06;10.00;;;4.00;;
61385;SDS011;47256;18.904;-99.054;2022-08-21T08:45:34;8.43;;;4.10;;
61385;SDS011;47256;18.904;-99.054;2022-08-21T08:48:08;10.75;;;3.67;;
61385;SDS011;47256;18.904;-99.054;2022-08-21T08:50:57;7.45;;;4.53;;
61385;SDS011;47256;18.904;-99.054;2022-08-21T08:53:31;8.20;;;4.35;;
61385;SDS011;47256;18.904;-99.054;2022-08-21T08:56:04;7.60;;;4.35;;
61385;SDS011;47256;18.904;-99.054;2022-08-21T08:58:34;8.48;;;4.60;;
61385;SDS011;47256;18.904;-99.054;2022-08-21T09:01:12;9.38;;;3.92;;
61385;SDS011;47256;18.904;-99.054;2022-08-21T09:03:45;13.88;;;4.57;;
61385;SDS011;47256;18.904;-99.054;2022-08-21T09:15:36;13.68;;;4.40;;
61385;SDS011;47256;18.904;-99.054;2022-08-21T09:20:37;14.75;;;4.88;;
61385;SDS011;47256;18.904;-99.054;2022-08-21T09:28:27;6.50;;;3.80;;
61385;SDS011;47256;18.904;-99.054;2022-08-21T09:31:08;7.25;;;3.47;;
61385;SDS011;47256;18.904;-99.054;2022-08-21T09:33:56;13.82;;;4.18;;
61385;SDS011;47256;18.904;-99.054;2022-08-21T09:36:39;8.23;;;4.45;;
61385;SDS011;47256;18.904;-99.054;2022-08-21T09:39:11;14.82;;;4.05;;
61385;SDS011;47256;18.904;-99.054;2022-08-21T09:41:55;6.55;;;3.25;;
61385;SDS011;47256;18.904;-99.054;2022-08-21T09:44:28;8.00;;;3.45;;
61385;SDS011;47256;18.904;-99.054;2022-08-21T09:46:59;6.80;;;3.40;;
61385;SDS011;47256;18.904;-99.054;2022-08-21T09:49:30;7.43;;;3.70;;
61385;SDS011;47256;18.904;-99.054;2022-08-21T09:52:01;7.47;;;3.90;;
61385;SDS011;47256;18.904;-99.054;2022-08-21T09:54:31;4.50;;;3.22;;
61385;SDS011;47256;18.904;-99.054;2022-08-21T09:59:55;7.40;;;3.55;;
61385;SDS011;47256;18.904;-99.054;2022-08-21T10:02:34;8.18;;;3.70;;
61385;SDS011;47256;18.904;-99.054;2022-08-21T10:05:18;11.68;;;3.40;;
61385;SDS011;47256;18.904;-99.054;2022-08-21T10:07:48;7.25;;;3.65;;
61385;SDS011;47256;18.904;-99.054;2022-08-21T10:10:18;13.75;;;3.58;;
61385;SDS011;47256;18.904;-99.054;2022-08-21T10:16:20;8.07;;;3.47;;
61385;SDS011;47256;18.904;-99.054;2022-08-21T10:39:24;10.95;;;3.78;;
61385;SDS011;47256;18.904;-99.054;2022-08-21T10:42:06;5.13;;;3.35;;
61385;SDS011;47256;18.904;-99.054;2022-08-21T10:47:44;12.40;;;4.03;;
61385;SDS011;47256;18.904;-99.054;2022-08-21T10:50:30;10.13;;;3.50;;
61385;SDS011;47256;18.904;-99.054;2022-08-21T10:53:41;5.80;;;3.53;;
61385;SDS011;47256;18.904;-99.054;2022-08-21T10:56:23;7.53;;;3.40;;
61385;SDS011;47256;18.904;-99.054;2022-08-21T11:07:05;7.50;;;3.65;;
61385;SDS011;47256;18.904;-99.054;2022-08-21T11:09:43;7.88;;;3.75;;
61385;SDS011;47256;18.904;-99.054;2022-08-21T11:15:24;8.68;;;4.18;;
61385;SDS011;47256;18.904;-99.054;2022-08-21T11:19:00;8.43;;;3.72;;
61385;SDS011;47256;18.904;-99.054;2022-08-21T11:21:27;7.38;;;3.67;;
61385;SDS011;47256;18.904;-99.054;2022-08-21T11:24:16;9.57;;;3.83;;
61385;SDS011;47256;18.904;-99.054;2022-08-21T11:29:50;5.88;;;4.55;;
61385;SDS011;47256;18.904;-99.054;2022-08-21T11:38:26;7.07;;;3.55;;
61385;SDS011;47256;18.904;-99.054;2022-08-21T11:41:43;11.25;;;3.63;;
61385;SDS011;47256;18.904;-99.054;2022-08-21T12:00:27;9.43;;;3.65;;
61385;SDS011;47256;18.904;-99.054;2022-08-21T12:03:29;11.00;;;3.88;;
61385;SDS011;47256;18.904;-99.054;2022-08-21T12:06:04;8.70;;;4.20;;
61385;SDS011;47256;18.904;-99.054;2022-08-21T12:08:42;9.48;;;4.20;;
61385;SDS011;47256;18.904;-99.054;2022-08-21T12:16:32;8.80;;;4.15;;
61385;SDS011;47256;18.904;-99.054;2022-08-21T12:19:03;9.65;;;4.53;;
61385;SDS011;47256;18.904;-99.054;2022-08-21T12:21:51;10.80;;;3.58;;
61385;SDS011;47256;18.904;-99.054;2022-08-21T12:27:01;8.57;;;3.92;;
61385;SDS011;47256;18.904;-99.054;2022-08-21T12:29:45;5.53;;;3.70;;
61385;SDS011;47256;18.904;-99.054;2022-08-21T12:35:15;11.32;;;3.92;;
61385;SDS011;47256;18.904;-99.054;2022-08-21T12:37:47;8.82;;;4.07;;
61385;SDS011;47256;18.904;-99.054;2022-08-21T12:42:59;12.55;;;4.20;;
61385;SDS011;47256;18.904;-99.054;2022-08-21T12:45:32;7.38;;;3.83;;
61385;SDS011;47256;18.904;-99.054;2022-08-21T12:50:55;14.45;;;5.65;;
61385;SDS011;47256;18.904;-99.054;2022-08-21T12:53:46;8.82;;;5.03;;
61385;SDS011;47256;18.904;-99.054;2022-08-21T12:56:18;19.48;;;5.18;;
61385;SDS011;47256;18.904;-99.054;2022-08-21T12:59:00;9.68;;;4.68;;
61385;SDS011;47256;18.904;-99.054;2022-08-21T13:01:33;11.73;;;4.57;;
61385;SDS011;47256;18.904;-99.054;2022-08-21T13:04:11;10.20;;;4.68;;
61385;SDS011;47256;18.904;-99.054;2022-08-21T13:06:45;12.35;;;4.70;;
61385;SDS011;47256;18.904;-99.054;2022-08-21T13:09:18;12.57;;;5.00;;
61385;SDS011;47256;18.904;-99.054;2022-08-21T13:11:52;10.40;;;4.55;;
61385;SDS011;47256;18.904;-99.054;2022-08-21T13:14:25;18.13;;;4.68;;
61385;SDS011;47256;18.904;-99.054;2022-08-21T13:17:03;10.68;;;5.30;;
61385;SDS011;47256;18.904;-99.054;2022-08-21T13:19:31;11.55;;;4.47;;
61385;SDS011;47256;18.904;-99.054;2022-08-21T13:22:01;11.10;;;4.47;;
61385;SDS011;47256;18.904;-99.054;2022-08-21T13:24:37;15.23;;;4.90;;
61385;SDS011;47256;18.904;-99.054;2022-08-21T13:30:08;13.95;;;4.10;;
61385;SDS011;47256;18.904;-99.054;2022-08-21T13:32:47;13.52;;;4.85;;
61385;SDS011;47256;18.904;-99.054;2022-08-21T13:35:26;10.40;;;4.35;;
61385;SDS011;47256;18.904;-99.054;2022-08-21T13:38:16;9.90;;;4.40;;
61385;SDS011;47256;18.904;-99.054;2022-08-21T13:40:47;10.95;;;4.00;;
61385;SDS011;47256;18.904;-99.054;2022-08-21T13:43:21;11.32;;;4.40;;
61385;SDS011;47256;18.904;-99.054;2022-08-21T13:45:53;15.05;;;4.00;;
61385;SDS011;47256;18.904;-99.054;2022-08-21T13:48:25;8.35;;;4.13;;
61385;SDS011;47256;18.904;-99.054;2022-08-21T13:50:56;10.73;;;4.72;;
61385;SDS011;47256;18.904;-99.054;2022-08-21T13:56:04;12.25;;;4.40;;
61385;SDS011;47256;18.904;-99.054;2022-08-21T13:58:45;9.40;;;4.93;;
61385;SDS011;47256;18.904;-99.054;2022-08-21T14:01:33;10.38;;;5.38;;
61385;SDS011;47256;18.904;-99.054;2022-08-21T14:04:07;10.23;;;5.60;;
61385;SDS011;47256;18.904;-99.054;2022-08-21T14:06:49;14.05;;;7.00;;
61385;SDS011;47256;18.904;-99.054;2022-08-21T14:12:03;16.65;;;7.28;;
61385;SDS011;47256;18.904;-99.054;2022-08-21T14:14:43;10.40;;;6.55;;
61385;SDS011;47256;18.904;-99.054;2022-08-21T14:17:25;15.05;;;8.50;;
61385;SDS011;47256;18.904;-99.054;2022-08-21T14:22:57;18.73;;;9.30;;
61385;SDS011;47256;18.904;-99.054;2022-08-21T14:30:58;19.25;;;9.60;;
61385;SDS011;47256;18.904;-99.054;2022-08-21T14:33:41;16.65;;;7.88;;
61385;SDS011;47256;18.904;-99.054;2022-08-21T14:36:09;15.88;;;8.35;;
61385;SDS011;47256;18.904;-99.054;2022-08-21T14:38:38;13.77;;;6.47;;
61385;SDS011;47256;18.904;-99.054;2022-08-21T14:41:16;13.02;;;7.90;;
61385;SDS011;47256;18.904;-99.054;2022-08-21T14:43:56;15.98;;;7.05;;
61385;SDS011;47256;18.904;-99.054;2022-08-21T14:46:25;17.85;;;8.07;;
61385;SDS011;47256;18.904;-99.054;2022-08-21T14:48:57;15.02;;;8.02;;
61385;SDS011;47256;18.904;-99.054;2022-08-21T14:51:24;17.10;;;8.00;;
61385;SDS011;47256;18.904;-99.054;2022-08-21T14:53:53;12.35;;;7.25;;
61385;SDS011;47256;18.904;-99.054;2022-08-21T14:56:22;14.63;;;7.72;;
61385;SDS011;47256;18.904;-99.054;2022-08-21T14:58:53;22.08;;;9.02;;
61385;SDS011;47256;18.904;-99.054;2022-08-21T15:01:29;17.05;;;8.93;;
61385;SDS011;47256;18.904;-99.054;2022-08-21T15:03:58;15.60;;;7.63;;
61385;SDS011;47256;18.904;-99.054;2022-08-21T15:06:25;17.08;;;6.88;;
61385;SDS011;47256;18.904;-99.054;2022-08-21T15:08:52;16.95;;;7.50;;
61385;SDS011;47256;18.904;-99.054;2022-08-21T15:11:21;26.65;;;8.90;;
61385;SDS011;47256;18.904;-99.054;2022-08-21T15:13:52;20.08;;;8.98;;
61385;SDS011;47256;18.904;-99.054;2022-08-21T15:16:23;18.88;;;10.02;;
61385;SDS011;47256;18.904;-99.054;2022-08-21T15:18:51;18.23;;;9.32;;
61385;SDS011;47256;18.904;-99.054;2022-08-21T15:21:19;17.90;;;10.20;;
61385;SDS011;47256;18.904;-99.054;2022-08-21T15:23:47;21.30;;;11.13;;
61385;SDS011;47256;18.904;-99.054;2022-08-21T15:26:16;14.30;;;7.68;;
61385;SDS011;47256;18.904;-99.054;2022-08-21T15:28:43;12.88;;;8.32;;
61385;SDS011;47256;18.904;-99.054;2022-08-21T15:31:10;10.73;;;7.07;;
61385;SDS011;47256;18.904;-99.054;2022-08-21T15:33:39;18.20;;;8.45;;
61385;SDS011;47256;18.904;-99.054;2022-08-21T15:36:07;17.73;;;8.35;;
61385;SDS011;47256;18.904;-99.054;2022-08-21T15:38:34;17.63;;;9.70;;
61385;SDS011;47256;18.904;-99.054;2022-08-21T15:41:02;22.45;;;9.90;;
61385;SDS011;47256;18.904;-99.054;2022-08-21T15:43:48;22.73;;;10.35;;
61385;SDS011;47256;18.904;-99.054;2022-08-21T15:46:21;13.50;;;9.07;;
61385;SDS011;47256;18.904;-99.054;2022-08-21T15:48:48;17.55;;;10.15;;
61385;SDS011;47256;18.904;-99.054;2022-08-21T15:51:18;15.73;;;10.52;;
61385;SDS011;47256;18.904;-99.054;2022-08-21T15:53:46;15.27;;;8.77;;
61385;SDS011;47256;18.904;-99.054;2022-08-21T15:56:23;14.15;;;8.80;;
61385;SDS011;47256;18.904;-99.054;2022-08-21T15:58:52;18.83;;;9.00;;
61385;SDS011;47256;18.904;-99.054;2022-08-21T16:01:27;12.45;;;8.32;;
61385;SDS011;47256;18.904;-99.054;2022-08-21T16:03:55;13.25;;;7.90;;
61385;SDS011;47256;18.904;-99.054;2022-08-21T16:06:22;13.95;;;7.35;;
61385;SDS011;47256;18.904;-99.054;2022-08-21T16:08:52;16.08;;;8.15;;
61385;SDS011;47256;18.904;-99.054;2022-08-21T16:11:19;14.55;;;7.15;;
61385;SDS011;47256;18.904;-99.054;2022-08-21T16:13:46;13.55;;;7.22;;
61385;SDS011;47256;18.904;-99.054;2022-08-21T16:16:18;13.23;;;6.85;;
61385;SDS011;47256;18.904;-99.054;2022-08-21T16:18:48;15.70;;;7.53;;
61385;SDS011;47256;18.904;-99.054;2022-08-21T16:21:17;16.17;;;7.07;;
61385;SDS011;47256;18.904;-99.054;2022-08-21T16:23:44;16.00;;;7.22;;
61385;SDS011;47256;18.904;-99.054;2022-08-21T16:26:12;13.68;;;6.15;;
61385;SDS011;47256;18.904;-99.054;2022-08-21T16:28:41;14.73;;;5.80;;
61385;SDS011;47256;18.904;-99.054;2022-08-21T16:31:11;11.85;;;5.88;;
61385;SDS011;47256;18.904;-99.054;2022-08-21T16:33:41;8.43;;;4.68;;
61385;SDS011;47256;18.904;-99.054;2022-08-21T16:36:11;11.45;;;5.60;;
61385;SDS011;47256;18.904;-99.054;2022-08-21T16:38:39;9.93;;;5.20;;
61385;SDS011;47256;18.904;-99.054;2022-08-21T16:41:11;12.25;;;5.10;;